Time;durP1;ratioP1;P1;durP2;ratioP2;P2;SDS_P1;SDS_P2;PMS_P1;PMS_P2;Temp;Humidity;BMP_temperature;BMP_pressure;BME280_temperature;BME280_humidity;BME280_pressure;Samples;Min_cycle;Max_cycle;Signal;HPM_P1;HPM_P2
2022/08/18 00:01:06;;;;;;;;;;;;;;;25.83;40.34;99087.91;4329362;33;32920;-77
2022/08/18 00:03:37;;;;;;;;;;;;;;;25.84;40.06;99081.59;4340018;33;34252;-78
2022/08/18 00:06:24;;;;;;;;;;;;;;;25.82;40.06;99077.38;4343300;33;34330;-77
2022/08/18 00:08:57;;;;;;;;;;;;;;;25.87;40.26;99072.53;4345763;33;33286;-77
2022/08/18 00:11:25;;;;;;;;;;;;;;;25.74;40.52;99072.75;4340183;33;32840;-77
2022/08/18 00:13:54;;;;;;;;;;;;;;;25.86;40.46;99077.03;4340133;33;34232;-77
2022/08/18 00:16:22;;;;;;;;;;;;;;;25.76;40.99;99070.78;4340228;33;33779;-78
2022/08/18 00:18:52;;;;;;;;;;;;;;;25.73;41.15;99071.91;4339413;33;34169;-77
2022/08/18 00:21:20;;;;;;;;;;;;;;;25.66;40.92;99072.53;4327897;33;33602;-76
2022/08/18 00:23:49;;;;;;;;;;;;;;;25.51;41.16;99072.03;4324868;33;33472;-77
2022/08/18 00:26:18;;;;;;;;;;;;;;;25.50;41.30;99070.38;4325632;33;34847;-78
2022/08/18 00:28:46;;;;;;;;;;;;;;;25.52;41.39;99071.09;4338958;33;33824;-78
2022/08/18 00:31:15;;;;;;;;;;;;;;;25.33;42.15;99071.78;4340172;33;33416;-77
2022/08/18 00:33:43;;;;;;;;;;;;;;;25.36;42.30;99063.56;4340423;33;34921;-78
2022/08/18 00:36:13;;;;;;;;;;;;;;;25.28;42.39;99072.19;4340080;33;33971;-76
2022/08/18 00:38:41;;;;;;;;;;;;;;;25.37;41.70;99065.25;4339851;33;34095;-77
2022/08/18 00:41:10;;;;;;;;;;;;;;;25.34;41.46;99066.34;4345477;33;33053;-78
2022/08/18 00:43:39;;;;;;;;;;;;;;;25.23;42.22;99068.22;4340175;33;34129;-78
2022/08/18 00:46:09;;;;;;;;;;;;;;;25.05;42.55;99070.56;4340911;33;33421;-78
2022/08/18 00:48:37;;;;;;;;;;;;;;;25.06;42.88;99070.44;4339875;33;34191;-76
2022/08/18 00:51:07;;;;;;;;;;;;;;;25.12;42.58;99074.38;4345381;33;33002;-78
2022/08/18 00:53:39;;;;;;;;;;;;;;;25.07;43.15;99074.78;4339835;33;33895;-77
2022/08/18 00:56:09;;;;;;;;;;;;;;;24.98;43.58;99085.31;4339978;33;34199;-77
2022/08/18 00:58:39;;;;;;;;;;;;;;;25.00;43.71;99084.22;4339702;33;33741;-78
2022/08/18 01:01:08;;;;;;;;;;;;;;;24.96;44.21;99080.16;4337241;33;33324;-78
2022/08/18 01:03:38;;;;;;;;;;;;;;;24.99;44.48;99081.72;4344551;33;33844;-77
2022/08/18 01:06:13;;;;;;;;;;;;;;;25.09;44.78;99077.31;4339830;33;33783;-78
2022/08/18 01:08:45;;;;;;;;;;;;;;;25.11;45.54;99078.03;4339590;33;34024;-78
2022/08/18 01:11:13;;;;;;;;;;;;;;;25.19;46.17;99088.03;4339465;33;33151;-77
2022/08/18 01:13:42;;;;;;;;;;;;;;;25.19;46.91;99091.53;4345205;33;33927;-78
2022/08/18 01:21:53;;;;;;;;;;;;;;;25.36;47.99;99098.06;4339809;33;34058;-77
2022/08/18 01:25:58;;;;;;;;;;;;;;;25.48;48.40;99096.22;4339303;33;34889;-78
2022/08/18 01:27:13;;;;;;;;;;;;;;;25.54;48.33;99104.50;4339125;33;34649;-78
2022/08/18 01:29:42;;;;;;;;;;;;;;;25.52;48.50;99101.13;4344125;33;34002;-77
2022/08/18 01:32:11;;;;;;;;;;;;;;;25.60;48.36;99096.97;4339528;33;32692;-78
2022/08/18 01:34:39;;;;;;;;;;;;;;;25.63;48.48;99097.56;4339583;32;33715;-77
2022/08/18 01:37:08;;;;;;;;;;;;;;;25.53;48.77;99096.66;4339486;33;35048;-78
2022/08/18 01:39:38;;;;;;;;;;;;;;;25.71;48.91;99097.75;4344954;33;35068;-77
2022/08/18 01:42:27;;;;;;;;;;;;;;;25.81;48.76;99108.44;4345155;33;34300;-78
2022/08/18 01:44:55;;;;;;;;;;;;;;;25.85;48.76;99101.87;4340132;33;34563;-78
2022/08/18 01:47:24;;;;;;;;;;;;;;;25.63;49.25;99096.72;4339129;33;34324;-77
2022/08/18 01:49:52;;;;;;;;;;;;;;;25.80;48.72;99104.06;4340287;33;33553;-78
2022/08/18 01:52:21;;;;;;;;;;;;;;;25.85;48.45;99101.03;4344713;33;33381;-77
2022/08/18 01:54:52;;;;;;;;;;;;;;;25.87;48.47;99102.59;4339122;33;33691;-77
2022/08/18 01:57:20;;;;;;;;;;;;;;;25.85;48.74;99111.66;4337859;33;34979;-78
2022/08/18 01:59:49;;;;;;;;;;;;;;;25.91;48.62;99117.31;4340009;33;34229;-78
2022/08/18 02:02:23;;;;;;;;;;;;;;;25.86;48.93;99116.87;4341380;33;32924;-78
2022/08/18 02:04:52;;;;;;;;;;;;;;;25.85;49.05;99106.34;4332146;33;32936;-77
2022/08/18 02:07:20;;;;;;;;;;;;;;;25.87;49.11;99110.59;4326453;33;33936;-78
2022/08/18 02:09:57;;;;;;;;;;;;;;;25.84;49.19;99108.16;4326220;33;34712;-77
2022/08/18 02:12:26;;;;;;;;;;;;;;;25.68;49.95;99097.16;4326293;33;33097;-78
2022/08/18 02:14:54;;;;;;;;;;;;;;;25.84;49.63;99096.69;4332066;33;34156;-78
2022/08/18 02:17:23;;;;;;;;;;;;;;;25.94;49.60;99098.44;4326255;33;33849;-79
2022/08/18 02:19:54;;;;;;;;;;;;;;;25.94;49.58;99106.41;4325962;33;34357;-78
2022/08/18 02:22:22;;;;;;;;;;;;;;;25.93;49.55;99107.41;4326223;33;32774;-79
2022/08/18 02:24:51;;;;;;;;;;;;;;;25.91;49.67;99103.22;4327287;32;33044;-78
2022/08/18 02:27:20;;;;;;;;;;;;;;;25.93;49.74;99104.75;4343118;33;34905;-78
2022/08/18 02:29:48;;;;;;;;;;;;;;;25.85;50.10;99109.84;4325783;33;34560;-77
2022/08/18 02:32:17;;;;;;;;;;;;;;;26.02;49.56;99112.91;4326516;33;34282;-78
2022/08/18 02:34:45;;;;;;;;;;;;;;;26.03;49.60;99110.13;4328084;33;34698;-78
2022/08/18 02:37:14;;;;;;;;;;;;;;;25.89;50.02;99113.12;4346162;33;33934;-78
2022/08/18 02:39:43;;;;;;;;;;;;;;;25.90;50.09;99106.81;4341091;33;34515;-78
2022/08/18 02:42:15;;;;;;;;;;;;;;;25.85;50.30;99103.69;4340669;33;33358;-78
2022/08/18 02:44:45;;;;;;;;;;;;;;;25.90;50.51;99104.16;4340880;33;34746;-79
2022/08/18 02:47:13;;;;;;;;;;;;;;;25.89;50.60;99105.16;4340872;33;34998;-78
2022/08/18 02:49:42;;;;;;;;;;;;;;;25.89;50.45;99113.12;4346153;33;34685;-78
2022/08/18 02:52:10;;;;;;;;;;;;;;;25.90;50.40;99112.13;4340769;33;33124;-78
2022/08/18 02:54:39;;;;;;;;;;;;;;;25.99;50.42;99113.16;4340602;33;34584;-78
2022/08/18 02:57:09;;;;;;;;;;;;;;;25.71;50.18;99115.53;4342963;33;34073;-78
2022/08/18 02:59:38;;;;;;;;;;;;;;;25.60;48.21;99119.06;4346302;33;33116;-77
2022/08/18 03:02:08;;;;;;;;;;;;;;;25.50;47.84;99115.50;4340619;32;33001;-78
2022/08/18 03:04:36;;;;;;;;;;;;;;;25.38;47.66;99120.03;4327668;33;36162;-78
2022/08/18 03:07:06;;;;;;;;;;;;;;;25.23;47.99;99123.97;4326003;33;34357;-79
2022/08/18 03:09:34;;;;;;;;;;;;;;;25.32;47.46;99132.03;4331244;33;34964;-77
2022/08/18 03:12:06;;;;;;;;;;;;;;;25.10;47.45;99132.06;4338890;33;34051;-78
2022/08/18 03:14:35;;;;;;;;;;;;;;;25.12;47.24;99133.63;4340856;33;33822;-77
2022/08/18 03:17:04;;;;;;;;;;;;;;;25.05;47.60;99134.25;4340375;33;33844;-78
2022/08/18 03:19:34;;;;;;;;;;;;;;;24.70;48.57;99136.16;4340655;33;33856;-77
2022/08/18 03:22:04;;;;;;;;;;;;;;;24.83;48.58;99137.81;4346168;33;32519;-77
2022/08/18 03:24:53;;;;;;;;;;;;;;;24.84;48.68;99142.16;4340559;33;34648;-77
2022/08/18 03:27:21;;;;;;;;;;;;;;;24.82;49.02;99130.84;4339976;33;33684;-77
2022/08/18 03:29:50;;;;;;;;;;;;;;;24.74;49.48;99126.13;4327869;33;33571;-77
2022/08/18 03:32:18;;;;;;;;;;;;;;;24.67;49.70;99124.97;4325848;33;33393;-78
2022/08/18 03:34:48;;;;;;;;;;;;;;;24.71;49.80;99129.03;4333699;33;33915;-78
2022/08/18 03:37:17;;;;;;;;;;;;;;;24.69;50.07;99129.19;4340384;33;33977;-77
2022/08/18 03:39:45;;;;;;;;;;;;;;;24.72;50.18;99130.75;4340344;33;33824;-77
2022/08/18 03:42:14;;;;;;;;;;;;;;;24.67;50.56;99124.97;4341419;33;33268;-77
2022/08/18 03:44:42;;;;;;;;;;;;;;;24.39;51.83;99126.28;4345985;33;34528;-79
2022/08/18 03:47:10;;;;;;;;;;;;;;;24.52;51.64;99134.97;4340377;33;35149;-77
2022/08/18 03:49:40;;;;;;;;;;;;;;;24.66;51.68;99134.72;4340824;33;33851;-77
2022/08/18 03:52:12;;;;;;;;;;;;;;;24.68;52.22;99135.44;4340268;33;34216;-78
2022/08/18 03:54:40;;;;;;;;;;;;;;;24.73;52.70;99126.28;4345511;33;34284;-77
2022/08/18 03:57:09;;;;;;;;;;;;;;;24.54;53.25;99122.44;4344222;33;34902;-78
2022/08/18 03:59:55;;;;;;;;;;;;;;;24.71;52.63;99121.09;4340341;33;34240;-77
2022/08/18 04:02:23;;;;;;;;;;;;;;;24.73;52.77;99128.94;4340438;33;33037;-77
2022/08/18 04:04:52;;;;;;;;;;;;;;;24.72;52.90;99135.19;4340501;33;34590;-77
2022/08/18 04:07:22;;;;;;;;;;;;;;;24.77;53.08;99135.69;4346032;33;34932;-78
2022/08/18 04:09:50;;;;;;;;;;;;;;;24.76;53.61;99128.69;4315436;33;863240;-78
2022/08/18 04:12:19;;;;;;;;;;;;;;;25.01;53.51;99128.38;4340344;33;33270;-77
2022/08/18 04:14:48;;;;;;;;;;;;;;;24.99;53.95;99135.62;4340383;33;34032;-78
2022/08/18 04:17:19;;;;;;;;;;;;;;;24.88;54.67;99136.47;4340200;33;33553;-77
2022/08/18 04:19:47;;;;;;;;;;;;;;;24.96;54.83;99135.88;4346108;33;34166;-77
2022/08/18 04:22:16;;;;;;;;;;;;;;;25.15;54.50;99123.72;4339272;33;32939;-78
2022/08/18 04:24:47;;;;;;;;;;;;;;;25.13;54.67;99129.19;4340533;33;33905;-78
2022/08/18 04:27:17;;;;;;;;;;;;;;;25.18;54.74;99131.47;4340148;33;34824;-77
2022/08/18 04:29:45;;;;;;;;;;;;;;;25.19;54.92;99118.06;4345647;33;34938;-78
2022/08/18 04:32:14;;;;;;;;;;;;;;;25.34;54.60;99134.53;4340197;33;32874;-78
2022/08/18 04:34:43;;;;;;;;;;;;;;;25.31;54.74;99132.13;4340315;33;35049;-77
2022/08/18 04:37:12;;;;;;;;;;;;;;;25.18;55.27;99134.97;4340377;33;35055;-77
2022/08/18 04:39:41;;;;;;;;;;;;;;;25.14;55.37;99128.19;4345496;33;34159;-77
2022/08/18 04:42:14;;;;;;;;;;;;;;;25.42;54.50;99124.13;4344510;33;32828;-77
2022/08/18 04:44:42;;;;;;;;;;;;;;;25.58;53.68;99130.78;4340002;33;34853;-76
2022/08/18 04:47:11;;;;;;;;;;;;;;;25.62;53.48;99134.88;4340092;33;33760;-78
2022/08/18 04:49:42;;;;;;;;;;;;;;;25.80;52.96;99135.13;4340096;33;33946;-78
2022/08/18 04:55:08;;;;;;;;;;;;;;;25.82;53.04;99134.03;4345497;33;33704;-78
2022/08/18 04:57:38;;;;;;;;;;;;;;;25.55;53.84;99138.03;4338640;33;33554;-78
2022/08/18 05:00:08;;;;;;;;;;;;;;;25.63;53.62;99137.41;4339227;33;33701;-77
2022/08/18 05:02:36;;;;;;;;;;;;;;;25.65;53.79;99134.63;4339713;33;34134;-78
2022/08/18 05:05:05;;;;;;;;;;;;;;;25.92;52.95;99134.09;4345483;33;33830;-78
2022/08/18 05:07:33;;;;;;;;;;;;;;;25.79;53.42;99128.12;4339878;33;34142;-78
2022/08/18 05:10:02;;;;;;;;;;;;;;;25.85;53.41;99125.78;4338946;33;34367;-78
2022/08/18 05:12:30;;;;;;;;;;;;;;;26.10;52.80;99131.69;4339742;33;34020;-77
2022/08/18 05:15:00;;;;;;;;;;;;;;;26.37;51.90;99121.28;4345594;33;33760;-77
2022/08/18 05:17:30;;;;;;;;;;;;;;;26.15;52.56;99122.34;4341298;33;34791;-78
2022/08/18 05:19:59;;;;;;;;;;;;;;;26.32;52.07;99123.53;4339923;33;33351;-78
2022/08/18 05:22:31;;;;;;;;;;;;;;;26.20;52.34;99129.91;4339726;33;34572;-77
2022/08/18 05:24:59;;;;;;;;;;;;;;;26.56;51.58;99125.03;4339437;32;33792;-78
2022/08/18 05:27:46;;;;;;;;;;;;;;;26.72;50.98;99138.63;4344733;33;35149;-78
2022/08/18 05:30:16;;;;;;;;;;;;;;;27.01;50.30;99144.03;4339746;33;34687;-78
2022/08/18 05:32:45;;;;;;;;;;;;;;;27.06;49.96;99146.25;4339883;33;33900;-78
2022/08/18 05:35:18;;;;;;;;;;;;;;;27.30;49.38;99137.03;4336416;33;35598;-78
2022/08/18 05:37:57;;;;;;;;;;;;;;;27.82;48.11;99145.56;4326782;33;33694;-75
2022/08/18 05:40:26;;;;;;;;;;;;;;;28.05;47.32;99141.59;4332073;33;34638;-76
2022/08/18 05:42:56;;;;;;;;;;;;;;;28.42;46.28;99143.41;4326553;33;33752;-76
2022/08/18 05:45:30;;;;;;;;;;;;;;;28.80;45.33;99138.88;4326400;33;35445;-76
2022/08/18 05:48:00;;;;;;;;;;;;;;;29.04;44.69;99146.28;4326374;33;33989;-76
2022/08/18 05:50:29;;;;;;;;;;;;;;;28.81;44.72;99142.38;4327323;33;34496;-76
2022/08/18 05:52:58;;;;;;;;;;;;;;;29.06;44.60;99144.31;4331940;33;34064;-76
2022/08/18 05:58:16;;;;;;;;;;;;;;;29.31;43.76;99152.56;4327440;33;33705;-76
2022/08/18 06:00:51;;;;;;;;;;;;;;;29.27;43.99;99148.53;4336221;33;33697;-76
2022/08/18 06:03:27;;;;;;;;;;;;;;;28.89;44.44;99145.13;4326382;33;34236;-77
2022/08/18 06:06:00;;;;;;;;;;;;;;;28.70;44.77;99151.41;4332264;33;33979;-75
2022/08/18 06:08:30;;;;;;;;;;;;;;;28.27;45.89;99152.84;4327086;33;34668;-75
2022/08/18 06:10:58;;;;;;;;;;;;;;;28.77;45.23;99146.34;4326667;33;33135;-75
2022/08/18 06:13:27;;;;;;;;;;;;;;;28.31;46.10;99156.91;4326455;33;32648;-75
2022/08/18 06:15:58;;;;;;;;;;;;;;;28.28;45.57;99157.22;4331784;33;35030;-76
2022/08/18 06:18:33;;;;;;;;;;;;;;;28.34;45.52;99167.28;4326514;33;34902;-75
2022/08/18 06:21:06;;;;;;;;;;;;;;;28.10;46.08;99165.13;4326436;33;33424;-76
2022/08/18 06:23:35;;;;;;;;;;;;;;;28.11;46.14;99166.00;4326672;33;32397;-75
2022/08/18 06:26:07;;;;;;;;;;;;;;;28.38;45.83;99155.34;4327956;33;33925;-75
2022/08/18 06:28:41;;;;;;;;;;;;;;;28.28;45.75;99159.91;4346327;33;34520;-76
2022/08/18 06:31:13;;;;;;;;;;;;;;;28.57;45.24;99158.97;4341058;33;34919;-75
2022/08/18 06:33:44;;;;;;;;;;;;;;;28.13;46.38;99156.03;4341053;33;33183;-76
2022/08/18 06:36:15;;;;;;;;;;;;;;;28.31;45.84;99151.59;4340874;33;34179;-76
2022/08/18 06:38:50;;;;;;;;;;;;;;;28.64;44.88;99154.69;4340851;33;34337;-75
2022/08/18 06:41:20;;;;;;;;;;;;;;;28.57;44.97;99156.28;4346236;33;34302;-75
2022/08/18 06:44:10;;;;;;;;;;;;;;;28.54;45.26;99157.44;4339030;33;33234;-76
2022/08/18 06:46:44;;;;;;;;;;;;;;;28.46;45.48;99163.50;4341294;33;33579;-75
2022/08/18 06:49:14;;;;;;;;;;;;;;;28.75;45.21;99157.16;4340829;33;34900;-75
2022/08/18 06:51:43;;;;;;;;;;;;;;;28.29;45.76;99157.09;4340765;33;35505;-76
2022/08/18 06:54:26;;;;;;;;;;;;;;;28.82;44.77;99155.56;4346312;33;33367;-77
2022/08/18 06:56:56;;;;;;;;;;;;;;;28.77;45.35;99149.84;4340718;33;33767;-75
2022/08/18 06:59:26;;;;;;;;;;;;;;;28.98;44.66;99148.72;4340708;33;35132;-75
2022/08/18 07:02:00;;;;;;;;;;;;;;;28.88;44.92;99149.63;4340500;33;34211;-76
2022/08/18 07:04:42;;;;;;;;;;;;;;;28.89;44.86;99143.28;4328672;33;33400;-75
2022/08/18 07:07:19;;;;;;;;;;;;;;;28.92;44.61;99143.00;4331607;33;33606;-75
2022/08/18 07:09:48;;;;;;;;;;;;;;;28.99;44.66;99137.06;4325812;33;34012;-76
2022/08/18 07:12:20;;;;;;;;;;;;;;;29.02;44.49;99144.75;4325788;33;34180;-76
2022/08/18 07:14:50;;;;;;;;;;;;;;;29.03;44.48;99149.13;4329258;33;33465;-76
2022/08/18 07:17:22;;;;;;;;;;;;;;;29.26;43.83;99146.84;4333770;33;35698;-75
2022/08/18 07:20:18;;;;;;;;;;;;;;;29.20;44.53;99142.97;4331580;33;34748;-76
2022/08/18 07:22:54;;;;;;;;;;;;;;;29.02;44.13;99142.94;4326168;33;34500;-76
2022/08/18 07:25:24;;;;;;;;;;;;;;;29.57;43.48;99136.59;4326115;33;32895;-76
2022/08/18 07:27:55;;;;;;;;;;;;;;;29.54;43.18;99140.41;4326097;33;33531;-76
2022/08/18 07:30:28;;;;;;;;;;;;;;;29.36;43.15;99139.63;4325979;33;33204;-76
2022/08/18 07:33:00;;;;;;;;;;;;;;;29.44;42.29;99138.84;4331380;33;33623;-76
2022/08/18 07:35:29;;;;;;;;;;;;;;;29.48;41.96;99141.03;4332294;33;33359;-76
2022/08/18 07:38:00;;;;;;;;;;;;;;;29.39;41.80;99139.28;4340630;33;34080;-77
2022/08/18 07:40:50;;;;;;;;;;;;;;;30.03;40.82;99134.56;4340622;33;35134;-76
2022/08/18 07:43:20;;;;;;;;;;;;;;;30.01;41.02;99136.59;4340483;33;33270;-76
2022/08/18 07:45:51;;;;;;;;;;;;;;;30.00;40.62;99142.94;4335968;33;33706;-75
2022/08/18 07:48:21;;;;;;;;;;;;;;;29.69;41.28;99139.87;4325825;33;33800;-77
2022/08/18 07:51:09;;;;;;;;;;;;;;;29.63;41.69;99141.31;4328612;33;33951;-76
2022/08/18 07:53:41;;;;;;;;;;;;;;;29.95;41.04;99150.59;4329646;33;34286;-76
2022/08/18 07:56:23;;;;;;;;;;;;;;;30.17;40.41;99157.22;4340546;33;34023;-75
2022/08/18 07:58:54;;;;;;;;;;;;;;;30.48;39.88;99151.41;4345755;33;33772;-76
2022/08/18 08:01:23;;;;;;;;;;;;;;;30.22;39.98;99167.47;4340435;33;33919;-76
2022/08/18 08:03:54;;;;;;;;;;;;;;;30.44;39.68;99164.25;4333197;33;34296;-75
2022/08/18 08:06:24;;;;;;;;;;;;;;;30.42;40.02;99168.91;4325843;33;32726;-76
2022/08/18 08:08:55;;;;;;;;;;;;;;;30.25;40.08;99175.16;4325712;33;33697;-76
2022/08/18 08:11:26;;;;;;;;;;;;;;;30.57;39.99;99183.41;4331237;33;33599;-76
2022/08/18 08:13:59;;;;;;;;;;;;;;;30.58;39.64;99189.56;4325767;33;34152;-75
2022/08/18 08:16:36;;;;;;;;;;;;;;;30.47;39.68;99188.03;4331064;33;33045;-75
2022/08/18 08:19:10;;;;;;;;;;;;;;;30.63;39.60;99187.25;4342037;33;34787;-76
2022/08/18 08:21:40;;;;;;;;;;;;;;;30.99;39.30;99193.25;4340696;33;34250;-76
2022/08/18 08:24:10;;;;;;;;;;;;;;;31.32;37.96;99192.50;4345594;32;34979;-75
2022/08/18 08:26:43;;;;;;;;;;;;;;;31.52;37.35;99198.41;4340339;33;33538;-76
2022/08/18 08:29:18;;;;;;;;;;;;;;;31.28;37.60;99200.03;4340000;33;33851;-76
2022/08/18 08:31:48;;;;;;;;;;;;;;;31.23;37.22;99188.97;4340473;33;34600;-76
2022/08/18 08:34:20;;;;;;;;;;;;;;;31.44;37.14;99192.03;4345633;33;33915;-75
2022/08/18 08:36:49;;;;;;;;;;;;;;;31.62;36.86;99185.66;4355156;32;32100;-76
2022/08/18 08:39:19;;;;;;;;;;;;;;;31.86;36.47;99187.50;4354790;32;34813;-76
2022/08/18 08:41:49;;;;;;;;;;;;;;;31.79;35.82;99179.28;4355216;32;34191;-77
2022/08/18 08:44:21;;;;;;;;;;;;;;;32.00;35.62;99176.09;4350721;32;33997;-77
2022/08/18 08:46:49;;;;;;;;;;;;;;;31.96;35.39;99173.94;4331145;33;34024;-76
2022/08/18 08:49:25;;;;;;;;;;;;;;;32.14;34.85;99174.56;4331107;33;33956;-75
2022/08/18 08:51:55;;;;;;;;;;;;;;;32.14;35.15;99169.22;4340081;33;35003;-76
2022/08/18 08:54:24;;;;;;;;;;;;;;;31.72;35.05;99167.56;4340053;33;34218;-76
2022/08/18 08:56:53;;;;;;;;;;;;;;;31.96;34.91;99163.19;4345551;33;32554;-76
2022/08/18 08:59:23;;;;;;;;;;;;;;;32.01;35.34;99166.19;4344612;33;33786;-77
2022/08/18 09:02:17;;;;;;;;;;;;;;;32.21;35.06;99153.22;4340070;33;33591;-76
2022/08/18 09:05:08;;;;;;;;;;;;;;;32.35;34.88;99154.37;4339937;33;33476;-75
2022/08/18 09:07:43;;;;;;;;;;;;;;;32.30;34.67;99158.41;4339525;33;32893;-76
2022/08/18 09:10:19;;;;;;;;;;;;;;;32.43;34.24;99159.72;4340118;33;34796;-76
2022/08/18 09:12:52;;;;;;;;;;;;;;;32.53;33.88;99154.19;4345655;33;34577;-77
2022/08/18 09:15:25;;;;;;;;;;;;;;;32.73;33.48;99150.88;4339217;33;34058;-76
2022/08/18 09:18:07;;;;;;;;;;;;;;;32.46;33.47;99149.47;4340017;33;32903;-76
2022/08/18 09:20:43;;;;;;;;;;;;;;;32.86;33.94;99146.75;4339687;33;33870;-76
2022/08/18 09:23:18;;;;;;;;;;;;;;;32.81;33.56;99146.47;4332868;33;33905;-77
2022/08/18 09:25:47;;;;;;;;;;;;;;;33.03;33.33;99150.19;4340400;33;33545;-77
2022/08/18 09:28:17;;;;;;;;;;;;;;;33.17;32.22;99143.25;4342398;33;32936;-75
2022/08/18 09:30:48;;;;;;;;;;;;;;;33.20;32.20;99148.25;4339478;33;33844;-75
2022/08/18 09:33:20;;;;;;;;;;;;;;;32.98;32.29;99156.09;4336617;33;33807;-77
2022/08/18 09:36:08;;;;;;;;;;;;;;;33.11;32.35;99144.81;4339180;33;33578;-76
2022/08/18 09:41:34;;;;;;;;;;;;;;;33.37;32.04;99136.38;4344762;33;33831;-76
2022/08/18 09:44:13;;;;;;;;;;;;;;;33.55;31.47;99134.19;4339764;33;34433;-77
2022/08/18 09:46:57;;;;;;;;;;;;;;;33.40;31.84;99136.00;4339574;33;33950;-76
2022/08/18 09:49:47;;;;;;;;;;;;;;;33.71;31.30;99121.66;4339615;33;33396;-76
2022/08/18 09:52:37;;;;;;;;;;;;;;;33.59;31.62;99113.19;4335024;33;33399;-76
2022/08/18 09:55:08;;;;;;;;;;;;;;;33.68;30.82;99098.59;4332111;32;36460;-78
2022/08/18 09:57:37;;;;;;;;;;;;;;;33.61;31.55;99094.16;4341402;33;34757;-75
2022/08/18 10:00:30;;;;;;;;;;;;;;;33.62;31.40;99093.16;4335470;33;34906;-77
2022/08/18 10:03:02;;;;;;;;;;;;;;;33.84;31.21;99094.09;4327431;33;33885;-77
2022/08/18 10:05:31;;;;;;;;;;;;;;;33.94;30.07;99090.09;4325833;33;35980;-77
2022/08/18 10:08:15;;;;;;;;;;;;;;;34.02;29.90;99080.25;4338747;33;34120;-77
2022/08/18 10:10:53;;;;;;;;;;;;;;;33.90;30.14;99080.75;4337164;33;34218;-77
2022/08/18 10:13:39;;;;;;;;;;;;;;;34.33;29.17;99083.59;4330072;33;34644;-77
2022/08/18 10:16:17;;;;;;;;;;;;;;;34.61;29.28;99078.37;4324559;33;33675;-76
2022/08/18 10:18:52;;;;;;;;;;;;;;;34.54;28.98;99082.00;4326559;33;33787;-77
2022/08/18 10:21:26;;;;;;;;;;;;;;;34.44;28.85;99079.59;4336964;33;34349;-76
2022/08/18 10:23:59;;;;;;;;;;;;;;;34.57;28.84;99089.69;4341333;33;34844;-76
2022/08/18 10:27:06;;;;;;;;;;;;;;;34.65;28.17;99084.22;4346688;33;33615;-76
2022/08/18 10:29:51;;;;;;;;;;;;;;;34.66;28.34;99091.28;4346616;33;33925;-75
2022/08/18 10:32:44;;;;;;;;;;;;;;;35.04;26.69;99088.34;4341665;33;33362;-76
2022/08/18 10:35:51;;;;;;;;;;;;;;;35.03;27.37;99086.66;4340512;33;34176;-76
2022/08/18 10:38:22;;;;;;;;;;;;;;;34.84;27.88;99083.59;4341079;33;33638;-77
2022/08/18 10:40:54;;;;;;;;;;;;;;;35.39;28.60;99069.59;4340928;33;33734;-77
2022/08/18 10:43:29;;;;;;;;;;;;;;;35.65;28.79;99077.91;4334580;33;33966;-76
2022/08/18 10:46:19;;;;;;;;;;;;;;;35.47;27.32;99075.69;4328646;33;33380;-76
2022/08/18 10:49:16;;;;;;;;;;;;;;;35.38;26.70;99079.53;4343502;33;34888;-75
2022/08/18 10:51:49;;;;;;;;;;;;;;;35.87;27.38;99067.84;4340875;33;34210;-75
2022/08/18 10:54:51;;;;;;;;;;;;;;;36.09;25.31;99067.78;4340842;33;33128;-76
2022/08/18 10:57:24;;;;;;;;;;;;;;;36.14;25.81;99067.19;4340542;33;33772;-77
2022/08/18 10:59:54;;;;;;;;;;;;;;;36.25;25.80;99063.94;4342969;33;33606;-77
2022/08/18 11:02:41;;;;;;;;;;;;;;;36.18;25.63;99068.47;4341257;33;33775;-76
2022/08/18 11:05:13;;;;;;;;;;;;;;;36.45;26.53;99070.22;4344859;33;34044;-76
2022/08/18 11:07:45;;;;;;;;;;;;;;;36.49;26.47;99063.37;4336597;33;33919;-76
2022/08/18 11:10:22;;;;;;;;;;;;;;;36.32;26.19;99067.50;4326137;33;35121;-76
2022/08/18 11:13:02;;;;;;;;;;;;;;;36.60;26.44;99058.44;4332383;33;34996;-76
2022/08/18 11:15:39;;;;;;;;;;;;;;;36.64;25.95;99067.81;4337053;33;33718;-76
2022/08/18 11:18:11;;;;;;;;;;;;;;;36.73;25.55;99069.31;4346142;33;33826;-77
2022/08/18 11:20:42;;;;;;;;;;;;;;;36.55;25.75;99060.91;4340643;33;33831;-76
2022/08/18 11:23:16;;;;;;;;;;;;;;;36.51;25.27;99055.91;4341047;33;34672;-76
2022/08/18 11:25:44;;;;;;;;;;;;;;;36.85;25.17;99045.16;4340572;33;33358;-76
2022/08/18 11:28:16;;;;;;;;;;;;;;;36.63;24.95;99042.66;4341657;33;34854;-77
2022/08/18 11:30:47;;;;;;;;;;;;;;;36.73;24.70;99039.56;4345726;33;34373;-76
2022/08/18 11:33:16;;;;;;;;;;;;;;;37.13;24.33;99040.44;4339311;33;33806;-75
2022/08/18 11:36:06;;;;;;;;;;;;;;;37.17;24.33;99035.47;4338671;33;32660;-76
2022/08/18 11:38:34;;;;;;;;;;;;;;;37.51;24.53;99033.56;4325973;33;34679;-77
2022/08/18 11:41:12;;;;;;;;;;;;;;;37.64;24.04;99021.88;4333652;33;34738;-77
2022/08/18 11:43:41;;;;;;;;;;;;;;;37.66;22.35;99011.69;4342351;33;34113;-77
2022/08/18 11:46:16;;;;;;;;;;;;;;;37.90;23.23;99018.28;4340632;33;32739;-77
2022/08/18 11:48:52;;;;;;;;;;;;;;;37.93;23.37;99015.97;4336682;33;33767;-77
2022/08/18 11:51:27;;;;;;;;;;;;;;;38.03;22.81;99015.53;4410370;27;35007;-78
2022/08/18 11:53:57;;;;;;;;;;;;;;;38.04;22.74;99009.09;4387028;32;34984;-77
2022/08/18 11:56:28;;;;;;;;;;;;;;;38.25;23.36;99016.06;4392112;32;34392;-77
2022/08/18 11:59:00;;;;;;;;;;;;;;;38.28;22.89;99012.09;4521366;27;33570;-77
2022/08/18 12:01:32;;;;;;;;;;;;;;;38.49;22.25;99005.53;4387425;32;34070;-79
2022/08/18 12:04:17;;;;;;;;;;;;;;;38.40;22.50;99004.94;4384261;32;35081;-77
2022/08/18 12:07:05;;;;;;;;;;;;;;;38.48;22.14;99001.19;4385509;32;33315;-77
2022/08/18 12:09:38;;;;;;;;;;;;;;;38.65;22.85;99005.00;4381981;32;34797;-78
2022/08/18 12:12:32;;;;;;;;;;;;;;;38.65;22.78;98994.16;4381727;32;33981;-77
2022/08/18 12:15:05;;;;;;;;;;;;;;;38.84;22.06;98989.66;4383733;32;33436;-78
2022/08/18 12:17:44;;;;;;;;;;;;;;;39.02;21.40;98986.19;4372063;32;32979;-78
2022/08/18 12:20:36;;;;;;;;;;;;;;;39.22;22.14;98986.84;4371717;32;33687;-77
2022/08/18 12:23:06;;;;;;;;;;;;;;;38.92;21.76;98977.72;4375283;32;35185;-78
2022/08/18 12:25:35;;;;;;;;;;;;;;;38.69;21.40;98970.19;4391393;32;35038;-78
2022/08/18 12:28:05;;;;;;;;;;;;;;;39.31;21.47;98960.22;4386550;32;33249;-79
2022/08/18 12:30:39;;;;;;;;;;;;;;;39.47;20.85;98950.72;4377252;32;34915;-77
2022/08/18 12:33:09;;;;;;;;;;;;;;;39.17;20.68;98950.56;4372320;32;33812;-77
2022/08/18 12:35:43;;;;;;;;;;;;;;;39.51;21.11;98946.50;4381891;32;33833;-78
2022/08/18 12:38:16;;;;;;;;;;;;;;;39.73;21.47;98952.28;4391698;32;33059;-77
2022/08/18 12:40:53;;;;;;;;;;;;;;;39.25;20.87;98963.84;4372358;32;34660;-77
2022/08/18 12:43:23;;;;;;;;;;;;;;;39.79;20.78;98973.06;4370957;32;33769;-77
2022/08/18 12:45:59;;;;;;;;;;;;;;;39.71;20.58;98967.97;4372082;32;35101;-79
2022/08/18 12:48:39;;;;;;;;;;;;;;;39.95;19.67;98968.94;4372996;32;33407;-78
2022/08/18 12:51:09;;;;;;;;;;;;;;;39.98;19.42;98973.09;4383248;32;33195;-77
2022/08/18 12:53:41;;;;;;;;;;;;;;;40.45;19.72;98979.56;4386428;32;34065;-77
2022/08/18 12:56:30;;;;;;;;;;;;;;;40.34;19.44;98983.06;4371634;32;34255;-78
2022/08/18 12:58:59;;;;;;;;;;;;;;;40.52;19.43;98987.59;4372181;32;33220;-79
2022/08/18 13:01:32;;;;;;;;;;;;;;;40.77;20.07;98989.38;4381666;32;34833;-76
2022/08/18 13:04:02;;;;;;;;;;;;;;;40.78;19.54;98982.84;4390707;32;34464;-78
2022/08/18 13:06:44;;;;;;;;;;;;;;;40.65;19.51;98987.41;4386233;32;33625;-77
2022/08/18 13:09:30;;;;;;;;;;;;;;;40.98;18.88;98987.94;4386189;32;34027;-77
2022/08/18 13:12:10;;;;;;;;;;;;;;;41.12;18.80;98990.25;4382377;32;33861;-77
2022/08/18 13:14:44;;;;;;;;;;;;;;;41.25;18.19;98988.34;4386755;32;33889;-78
2022/08/18 13:17:12;;;;;;;;;;;;;;;41.40;17.74;98994.16;4383823;32;33691;-77
2022/08/18 13:20:07;;;;;;;;;;;;;;;41.42;17.56;98983.00;4379145;32;33127;-77
2022/08/18 13:22:36;;;;;;;;;;;;;;;41.64;17.56;98988.69;4370852;32;34412;-77
2022/08/18 13:25:11;;;;;;;;;;;;;;;41.57;17.68;98991.56;4373311;32;34241;-77
2022/08/18 13:27:59;;;;;;;;;;;;;;;41.21;17.63;98988.00;4388739;32;34486;-77
2022/08/18 13:30:31;;;;;;;;;;;;;;;41.66;17.82;98994.72;4386073;32;32433;-77
2022/08/18 13:33:03;;;;;;;;;;;;;;;41.81;17.69;98994.22;4386583;32;33795;-77